sensor_id;sensor_type;location;lat;lon;timestamp;P1;durP1;ratioP1;P2;durP2;ratioP2
41139;SDS011;26881;48.784;9.192;2023-07-31T00:00:03;4.30;;;1.52;;
41139;SDS011;26881;48.784;9.192;2023-07-31T00:05:25;5.38;;;1.88;;
41139;SDS011;26881;48.784;9.192;2023-07-31T00:10:50;3.40;;;1.60;;
41139;SDS011;26881;48.784;9.192;2023-07-31T00:16:13;7.90;;;1.67;;
41139;SDS011;26881;48.784;9.192;2023-07-31T00:21:35;4.78;;;1.70;;
41139;SDS011;26881;48.784;9.192;2023-07-31T00:26:57;3.58;;;1.60;;
41139;SDS011;26881;48.784;9.192;2023-07-31T00:32:18;3.17;;;1.90;;
41139;SDS011;26881;48.784;9.192;2023-07-31T00:37:40;5.28;;;1.80;;
41139;SDS011;26881;48.784;9.192;2023-07-31T00:43:03;4.32;;;1.63;;
41139;SDS011;26881;48.784;9.192;2023-07-31T00:48:25;3.03;;;1.58;;
41139;SDS011;26881;48.784;9.192;2023-07-31T00:53:48;7.88;;;1.67;;
41139;SDS011;26881;48.784;9.192;2023-07-31T00:59:10;4.53;;;1.63;;
41139;SDS011;26881;48.784;9.192;2023-07-31T01:04:31;4.10;;;1.92;;
41139;SDS011;26881;48.784;9.192;2023-07-31T01:15:27;2.47;;;1.60;;
41139;SDS011;26881;48.784;9.192;2023-07-31T01:20:54;5.30;;;1.65;;
41139;SDS011;26881;48.784;9.192;2023-07-31T01:26:26;5.40;;;1.98;;
41139;SDS011;26881;48.784;9.192;2023-07-31T01:31:51;2.63;;;1.60;;
41139;SDS011;26881;48.784;9.192;2023-07-31T01:37:16;5.05;;;2.00;;
41139;SDS011;26881;48.784;9.192;2023-07-31T01:42:38;5.45;;;1.73;;
41139;SDS011;26881;48.784;9.192;2023-07-31T01:48:00;5.75;;;1.58;;
41139;SDS011;26881;48.784;9.192;2023-07-31T01:53:22;3.00;;;1.52;;
41139;SDS011;26881;48.784;9.192;2023-07-31T01:58:44;5.03;;;1.60;;
41139;SDS011;26881;48.784;9.192;2023-07-31T02:04:06;6.85;;;2.25;;
41139;SDS011;26881;48.784;9.192;2023-07-31T02:09:28;5.07;;;1.60;;
41139;SDS011;26881;48.784;9.192;2023-07-31T02:14:50;4.25;;;1.90;;
41139;SDS011;26881;48.784;9.192;2023-07-31T02:20:11;4.07;;;1.80;;
41139;SDS011;26881;48.784;9.192;2023-07-31T02:25:33;3.92;;;1.42;;
41139;SDS011;26881;48.784;9.192;2023-07-31T02:30:55;2.88;;;1.95;;
41139;SDS011;26881;48.784;9.192;2023-07-31T02:36:17;3.15;;;1.70;;
41139;SDS011;26881;48.784;9.192;2023-07-31T02:41:39;7.00;;;1.73;;
41139;SDS011;26881;48.784;9.192;2023-07-31T02:47:01;3.38;;;1.85;;
41139;SDS011;26881;48.784;9.192;2023-07-31T02:52:24;3.10;;;1.73;;
41139;SDS011;26881;48.784;9.192;2023-07-31T02:57:46;5.43;;;1.90;;
41139;SDS011;26881;48.784;9.192;2023-07-31T03:03:08;5.13;;;1.60;;
41139;SDS011;26881;48.784;9.192;2023-07-31T03:08:31;5.10;;;1.83;;
41139;SDS011;26881;48.784;9.192;2023-07-31T03:13:52;8.43;;;2.13;;
41139;SDS011;26881;48.784;9.192;2023-07-31T03:19:15;5.95;;;1.90;;
41139;SDS011;26881;48.784;9.192;2023-07-31T03:24:37;3.13;;;1.27;;
41139;SDS011;26881;48.784;9.192;2023-07-31T03:29:59;4.25;;;1.88;;
41139;SDS011;26881;48.784;9.192;2023-07-31T03:35:22;3.95;;;1.80;;
41139;SDS011;26881;48.784;9.192;2023-07-31T03:40:44;3.38;;;1.85;;
41139;SDS011;26881;48.784;9.192;2023-07-31T03:46:06;2.33;;;1.83;;
41139;SDS011;26881;48.784;9.192;2023-07-31T03:51:28;6.63;;;2.63;;
41139;SDS011;26881;48.784;9.192;2023-07-31T03:56:50;5.97;;;2.10;;
41139;SDS011;26881;48.784;9.192;2023-07-31T04:02:11;4.30;;;2.28;;
41139;SDS011;26881;48.784;9.192;2023-07-31T04:07:35;4.75;;;1.90;;
41139;SDS011;26881;48.784;9.192;2023-07-31T04:12:57;10.80;;;2.00;;
41139;SDS011;26881;48.784;9.192;2023-07-31T04:18:19;5.15;;;1.70;;
41139;SDS011;26881;48.784;9.192;2023-07-31T04:23:41;3.13;;;1.52;;
41139;SDS011;26881;48.784;9.192;2023-07-31T04:29:03;4.35;;;1.60;;
41139;SDS011;26881;48.784;9.192;2023-07-31T04:34:25;8.00;;;1.75;;
41139;SDS011;26881;48.784;9.192;2023-07-31T04:39:47;4.47;;;1.90;;
41139;SDS011;26881;48.784;9.192;2023-07-31T04:45:09;6.15;;;2.05;;
41139;SDS011;26881;48.784;9.192;2023-07-31T04:50:31;4.20;;;1.90;;
41139;SDS011;26881;48.784;9.192;2023-07-31T04:55:53;4.63;;;1.83;;
41139;SDS011;26881;48.784;9.192;2023-07-31T05:01:15;4.63;;;1.50;;
41139;SDS011;26881;48.784;9.192;2023-07-31T05:06:37;4.90;;;2.10;;
41139;SDS011;26881;48.784;9.192;2023-07-31T05:11:59;3.05;;;1.58;;
41139;SDS011;26881;48.784;9.192;2023-07-31T05:17:21;5.72;;;2.00;;
41139;SDS011;26881;48.784;9.192;2023-07-31T05:22:43;3.80;;;1.75;;
41139;SDS011;26881;48.784;9.192;2023-07-31T05:28:05;3.42;;;1.60;;
41139;SDS011;26881;48.784;9.192;2023-07-31T05:33:27;2.75;;;1.58;;
41139;SDS011;26881;48.784;9.192;2023-07-31T05:38:49;3.63;;;1.80;;
41139;SDS011;26881;48.784;9.192;2023-07-31T05:44:11;2.88;;;1.70;;
41139;SDS011;26881;48.784;9.192;2023-07-31T05:49:33;5.43;;;1.77;;
41139;SDS011;26881;48.784;9.192;2023-07-31T05:54:55;8.65;;;1.85;;
41139;SDS011;26881;48.784;9.192;2023-07-31T06:00:17;2.80;;;1.55;;
41139;SDS011;26881;48.784;9.192;2023-07-31T06:05:38;1.92;;;1.55;;
41139;SDS011;26881;48.784;9.192;2023-07-31T06:11:00;3.55;;;1.50;;
41139;SDS011;26881;48.784;9.192;2023-07-31T06:16:24;3.55;;;1.80;;
41139;SDS011;26881;48.784;9.192;2023-07-31T06:21:47;2.72;;;1.60;;
41139;SDS011;26881;48.784;9.192;2023-07-31T06:27:09;5.40;;;2.00;;
41139;SDS011;26881;48.784;9.192;2023-07-31T06:32:30;5.88;;;1.60;;
41139;SDS011;26881;48.784;9.192;2023-07-31T06:37:52;4.18;;;1.73;;
41139;SDS011;26881;48.784;9.192;2023-07-31T06:43:14;3.13;;;1.67;;
41139;SDS011;26881;48.784;9.192;2023-07-31T06:48:36;6.05;;;2.08;;
41139;SDS011;26881;48.784;9.192;2023-07-31T06:53:59;3.55;;;1.60;;
41139;SDS011;26881;48.784;9.192;2023-07-31T06:59:20;5.25;;;1.90;;
41139;SDS011;26881;48.784;9.192;2023-07-31T07:04:42;4.05;;;1.75;;
41139;SDS011;26881;48.784;9.192;2023-07-31T07:10:04;6.03;;;2.17;;
41139;SDS011;26881;48.784;9.192;2023-07-31T07:15:26;5.43;;;1.80;;
41139;SDS011;26881;48.784;9.192;2023-07-31T07:20:52;4.97;;;1.77;;
41139;SDS011;26881;48.784;9.192;2023-07-31T07:26:15;6.40;;;2.20;;
41139;SDS011;26881;48.784;9.192;2023-07-31T07:31:37;6.22;;;2.47;;
41139;SDS011;26881;48.784;9.192;2023-07-31T07:36:58;4.00;;;2.10;;
41139;SDS011;26881;48.784;9.192;2023-07-31T07:42:20;5.32;;;1.88;;
41139;SDS011;26881;48.784;9.192;2023-07-31T07:47:42;4.45;;;2.28;;
41139;SDS011;26881;48.784;9.192;2023-07-31T07:53:04;7.35;;;2.80;;
41139;SDS011;26881;48.784;9.192;2023-07-31T07:58:26;3.70;;;2.25;;
41139;SDS011;26881;48.784;9.192;2023-07-31T08:03:49;4.50;;;2.13;;
41139;SDS011;26881;48.784;9.192;2023-07-31T08:09:11;4.93;;;2.15;;
41139;SDS011;26881;48.784;9.192;2023-07-31T08:14:33;6.15;;;2.65;;
41139;SDS011;26881;48.784;9.192;2023-07-31T08:19:55;5.85;;;2.40;;
41139;SDS011;26881;48.784;9.192;2023-07-31T08:25:19;4.50;;;2.25;;
41139;SDS011;26881;48.784;9.192;2023-07-31T08:30:41;6.43;;;2.13;;
41139;SDS011;26881;48.784;9.192;2023-07-31T08:36:04;7.15;;;2.20;;
41139;SDS011;26881;48.784;9.192;2023-07-31T08:41:27;4.85;;;2.20;;
41139;SDS011;26881;48.784;9.192;2023-07-31T08:46:49;4.97;;;1.92;;
41139;SDS011;26881;48.784;9.192;2023-07-31T08:52:11;6.65;;;2.38;;
41139;SDS011;26881;48.784;9.192;2023-07-31T08:57:34;4.85;;;2.63;;
41139;SDS011;26881;48.784;9.192;2023-07-31T09:02:58;4.05;;;2.42;;
41139;SDS011;26881;48.784;9.192;2023-07-31T09:08:24;5.78;;;2.35;;
41139;SDS011;26881;48.784;9.192;2023-07-31T09:13:51;3.38;;;2.17;;
41139;SDS011;26881;48.784;9.192;2023-07-31T09:19:14;4.82;;;2.28;;
41139;SDS011;26881;48.784;9.192;2023-07-31T09:24:47;6.10;;;3.17;;
41139;SDS011;26881;48.784;9.192;2023-07-31T09:30:09;3.88;;;2.22;;
41139;SDS011;26881;48.784;9.192;2023-07-31T09:35:32;9.60;;;2.40;;
41139;SDS011;26881;48.784;9.192;2023-07-31T09:40:55;4.57;;;2.25;;
41139;SDS011;26881;48.784;9.192;2023-07-31T09:46:21;5.05;;;2.42;;
41139;SDS011;26881;48.784;9.192;2023-07-31T09:51:43;4.80;;;2.13;;
41139;SDS011;26881;48.784;9.192;2023-07-31T09:57:05;5.28;;;2.67;;
41139;SDS011;26881;48.784;9.192;2023-07-31T10:02:28;6.97;;;2.58;;
41139;SDS011;26881;48.784;9.192;2023-07-31T10:07:54;5.82;;;2.03;;
41139;SDS011;26881;48.784;9.192;2023-07-31T10:13:17;6.82;;;2.50;;
41139;SDS011;26881;48.784;9.192;2023-07-31T10:18:40;5.53;;;2.22;;
41139;SDS011;26881;48.784;9.192;2023-07-31T10:24:03;7.15;;;2.38;;
41139;SDS011;26881;48.784;9.192;2023-07-31T10:29:26;5.05;;;2.40;;
41139;SDS011;26881;48.784;9.192;2023-07-31T10:34:50;4.43;;;2.45;;
41139;SDS011;26881;48.784;9.192;2023-07-31T10:40:17;4.32;;;2.28;;
41139;SDS011;26881;48.784;9.192;2023-07-31T10:45:48;4.05;;;2.45;;
41139;SDS011;26881;48.784;9.192;2023-07-31T10:51:11;3.88;;;2.60;;
41139;SDS011;26881;48.784;9.192;2023-07-31T10:56:36;5.07;;;2.88;;
41139;SDS011;26881;48.784;9.192;2023-07-31T11:02:00;4.75;;;2.38;;
41139;SDS011;26881;48.784;9.192;2023-07-31T11:07:24;7.13;;;2.33;;
41139;SDS011;26881;48.784;9.192;2023-07-31T11:12:46;5.20;;;2.67;;
41139;SDS011;26881;48.784;9.192;2023-07-31T11:18:08;3.90;;;2.47;;
41139;SDS011;26881;48.784;9.192;2023-07-31T11:23:32;6.13;;;2.85;;
41139;SDS011;26881;48.784;9.192;2023-07-31T11:28:54;4.25;;;2.45;;
41139;SDS011;26881;48.784;9.192;2023-07-31T11:34:16;5.60;;;2.92;;
41139;SDS011;26881;48.784;9.192;2023-07-31T11:39:39;6.68;;;2.53;;
41139;SDS011;26881;48.784;9.192;2023-07-31T11:45:04;5.18;;;2.60;;
41139;SDS011;26881;48.784;9.192;2023-07-31T11:50:26;4.88;;;2.60;;
41139;SDS011;26881;48.784;9.192;2023-07-31T11:55:48;5.18;;;2.75;;
41139;SDS011;26881;48.784;9.192;2023-07-31T12:01:11;6.80;;;2.58;;
41139;SDS011;26881;48.784;9.192;2023-07-31T12:06:37;6.05;;;2.55;;
41139;SDS011;26881;48.784;9.192;2023-07-31T12:11:59;4.97;;;2.50;;
41139;SDS011;26881;48.784;9.192;2023-07-31T12:17:21;6.55;;;2.40;;
41139;SDS011;26881;48.784;9.192;2023-07-31T12:22:43;4.35;;;2.53;;
41139;SDS011;26881;48.784;9.192;2023-07-31T12:28:05;7.78;;;2.50;;
41139;SDS011;26881;48.784;9.192;2023-07-31T12:33:36;5.82;;;2.78;;
41139;SDS011;26881;48.784;9.192;2023-07-31T12:39:00;8.70;;;3.00;;
41139;SDS011;26881;48.784;9.192;2023-07-31T12:44:22;5.68;;;2.60;;
41139;SDS011;26881;48.784;9.192;2023-07-31T12:49:43;5.05;;;2.60;;
41139;SDS011;26881;48.784;9.192;2023-07-31T12:55:05;4.30;;;2.45;;
41139;SDS011;26881;48.784;9.192;2023-07-31T13:00:27;5.72;;;2.60;;
41139;SDS011;26881;48.784;9.192;2023-07-31T13:05:49;4.60;;;2.97;;
41139;SDS011;26881;48.784;9.192;2023-07-31T13:11:11;6.57;;;2.70;;
41139;SDS011;26881;48.784;9.192;2023-07-31T13:16:33;4.47;;;2.70;;
41139;SDS011;26881;48.784;9.192;2023-07-31T13:21:55;5.18;;;2.75;;
41139;SDS011;26881;48.784;9.192;2023-07-31T13:27:17;5.22;;;2.47;;
41139;SDS011;26881;48.784;9.192;2023-07-31T13:32:41;4.85;;;2.58;;
41139;SDS011;26881;48.784;9.192;2023-07-31T13:38:03;4.90;;;2.80;;
41139;SDS011;26881;48.784;9.192;2023-07-31T13:43:24;4.55;;;2.72;;
41139;SDS011;26881;48.784;9.192;2023-07-31T13:48:46;6.95;;;2.97;;
41139;SDS011;26881;48.784;9.192;2023-07-31T13:54:08;5.75;;;2.70;;
41139;SDS011;26881;48.784;9.192;2023-07-31T13:59:30;4.30;;;2.80;;
41139;SDS011;26881;48.784;9.192;2023-07-31T14:04:52;8.27;;;2.80;;
41139;SDS011;26881;48.784;9.192;2023-07-31T14:10:14;3.30;;;2.55;;
41139;SDS011;26881;48.784;9.192;2023-07-31T14:15:36;3.25;;;2.38;;
41139;SDS011;26881;48.784;9.192;2023-07-31T14:20:58;5.05;;;2.42;;
41139;SDS011;26881;48.784;9.192;2023-07-31T14:26:20;4.53;;;2.58;;
41139;SDS011;26881;48.784;9.192;2023-07-31T14:31:42;4.43;;;2.78;;
41139;SDS011;26881;48.784;9.192;2023-07-31T14:37:04;4.15;;;3.15;;
41139;SDS011;26881;48.784;9.192;2023-07-31T14:42:26;6.25;;;2.67;;
41139;SDS011;26881;48.784;9.192;2023-07-31T14:47:48;5.55;;;2.45;;
41139;SDS011;26881;48.784;9.192;2023-07-31T14:53:10;4.55;;;3.00;;
41139;SDS011;26881;48.784;9.192;2023-07-31T14:58:32;5.75;;;2.53;;
41139;SDS011;26881;48.784;9.192;2023-07-31T15:03:53;5.20;;;2.58;;
41139;SDS011;26881;48.784;9.192;2023-07-31T15:09:15;3.13;;;2.38;;
41139;SDS011;26881;48.784;9.192;2023-07-31T15:14:37;6.05;;;3.40;;
41139;SDS011;26881;48.784;9.192;2023-07-31T15:19:59;5.55;;;3.15;;
41139;SDS011;26881;48.784;9.192;2023-07-31T15:25:24;6.30;;;2.67;;
41139;SDS011;26881;48.784;9.192;2023-07-31T15:30:46;6.10;;;2.70;;
41139;SDS011;26881;48.784;9.192;2023-07-31T15:36:09;4.57;;;2.50;;
41139;SDS011;26881;48.784;9.192;2023-07-31T15:41:31;5.13;;;2.15;;
41139;SDS011;26881;48.784;9.192;2023-07-31T15:46:53;2.72;;;2.38;;
41139;SDS011;26881;48.784;9.192;2023-07-31T15:52:15;6.63;;;2.78;;
41139;SDS011;26881;48.784;9.192;2023-07-31T15:57:37;4.32;;;2.55;;
41139;SDS011;26881;48.784;9.192;2023-07-31T16:02:58;3.17;;;2.60;;
41139;SDS011;26881;48.784;9.192;2023-07-31T16:08:20;3.75;;;2.60;;
41139;SDS011;26881;48.784;9.192;2023-07-31T16:13:42;3.50;;;2.63;;
41139;SDS011;26881;48.784;9.192;2023-07-31T16:19:04;5.50;;;2.63;;
41139;SDS011;26881;48.784;9.192;2023-07-31T16:24:26;3.90;;;2.58;;
41139;SDS011;26881;48.784;9.192;2023-07-31T16:29:48;3.47;;;2.55;;
41139;SDS011;26881;48.784;9.192;2023-07-31T16:35:10;5.57;;;2.85;;
41139;SDS011;26881;48.784;9.192;2023-07-31T16:40:32;5.93;;;2.55;;
41139;SDS011;26881;48.784;9.192;2023-07-31T16:45:55;4.30;;;2.67;;
41139;SDS011;26881;48.784;9.192;2023-07-31T16:51:18;4.45;;;3.08;;
41139;SDS011;26881;48.784;9.192;2023-07-31T16:56:41;5.43;;;2.88;;
41139;SDS011;26881;48.784;9.192;2023-07-31T17:02:20;6.93;;;3.20;;
41139;SDS011;26881;48.784;9.192;2023-07-31T17:07:42;6.05;;;3.10;;
41139;SDS011;26881;48.784;9.192;2023-07-31T17:13:03;3.05;;;2.70;;
41139;SDS011;26881;48.784;9.192;2023-07-31T17:18:25;3.13;;;2.67;;
41139;SDS011;26881;48.784;9.192;2023-07-31T17:23:47;7.15;;;3.17;;
41139;SDS011;26881;48.784;9.192;2023-07-31T17:29:10;5.55;;;3.10;;
41139;SDS011;26881;48.784;9.192;2023-07-31T17:34:36;4.20;;;3.03;;
41139;SDS011;26881;48.784;9.192;2023-07-31T17:39:58;4.13;;;2.50;;
41139;SDS011;26881;48.784;9.192;2023-07-31T17:45:20;4.78;;;3.00;;
41139;SDS011;26881;48.784;9.192;2023-07-31T17:50:42;5.63;;;3.10;;
41139;SDS011;26881;48.784;9.192;2023-07-31T17:56:09;3.10;;;2.63;;
41139;SDS011;26881;48.784;9.192;2023-07-31T18:01:31;4.40;;;2.40;;
41139;SDS011;26881;48.784;9.192;2023-07-31T18:06:56;6.18;;;3.10;;
41139;SDS011;26881;48.784;9.192;2023-07-31T18:12:18;5.10;;;2.72;;
41139;SDS011;26881;48.784;9.192;2023-07-31T18:17:40;6.93;;;2.55;;
41139;SDS011;26881;48.784;9.192;2023-07-31T18:23:02;4.38;;;2.90;;
41139;SDS011;26881;48.784;9.192;2023-07-31T18:28:24;7.95;;;3.42;;
41139;SDS011;26881;48.784;9.192;2023-07-31T18:33:46;4.35;;;2.72;;
41139;SDS011;26881;48.784;9.192;2023-07-31T18:39:08;5.68;;;3.45;;
41139;SDS011;26881;48.784;9.192;2023-07-31T18:44:30;7.00;;;3.72;;
41139;SDS011;26881;48.784;9.192;2023-07-31T18:49:52;12.35;;;3.92;;
41139;SDS011;26881;48.784;9.192;2023-07-31T18:55:13;5.90;;;3.40;;
41139;SDS011;26881;48.784;9.192;2023-07-31T19:00:35;8.75;;;4.00;;
41139;SDS011;26881;48.784;9.192;2023-07-31T19:06:04;7.32;;;3.30;;
41139;SDS011;26881;48.784;9.192;2023-07-31T19:11:26;6.20;;;3.28;;
41139;SDS011;26881;48.784;9.192;2023-07-31T19:16:53;7.35;;;3.63;;
41139;SDS011;26881;48.784;9.192;2023-07-31T19:22:16;5.15;;;3.72;;
41139;SDS011;26881;48.784;9.192;2023-07-31T19:27:37;8.23;;;4.35;;
41139;SDS011;26881;48.784;9.192;2023-07-31T19:33:00;6.35;;;4.00;;
41139;SDS011;26881;48.784;9.192;2023-07-31T19:38:22;7.10;;;4.22;;
41139;SDS011;26881;48.784;9.192;2023-07-31T19:43:44;3.92;;;3.08;;
41139;SDS011;26881;48.784;9.192;2023-07-31T19:49:06;3.83;;;3.40;;
41139;SDS011;26881;48.784;9.192;2023-07-31T19:54:28;6.18;;;4.05;;
41139;SDS011;26881;48.784;9.192;2023-07-31T19:59:49;7.38;;;4.05;;
41139;SDS011;26881;48.784;9.192;2023-07-31T20:05:11;8.05;;;4.15;;
41139;SDS011;26881;48.784;9.192;2023-07-31T20:10:33;7.15;;;3.50;;
41139;SDS011;26881;48.784;9.192;2023-07-31T20:15:55;5.32;;;3.47;;
41139;SDS011;26881;48.784;9.192;2023-07-31T20:21:17;5.85;;;3.72;;
41139;SDS011;26881;48.784;9.192;2023-07-31T20:26:39;6.85;;;3.35;;
41139;SDS011;26881;48.784;9.192;2023-07-31T20:32:02;6.45;;;3.78;;
41139;SDS011;26881;48.784;9.192;2023-07-31T20:37:24;6.32;;;4.38;;
41139;SDS011;26881;48.784;9.192;2023-07-31T20:42:56;8.32;;;4.45;;
41139;SDS011;26881;48.784;9.192;2023-07-31T20:48:19;7.40;;;4.03;;
41139;SDS011;26881;48.784;9.192;2023-07-31T20:53:41;6.43;;;4.22;;
41139;SDS011;26881;48.784;9.192;2023-07-31T20:59:03;6.85;;;4.00;;
41139;SDS011;26881;48.784;9.192;2023-07-31T21:04:25;6.60;;;3.88;;
41139;SDS011;26881;48.784;9.192;2023-07-31T21:09:47;6.07;;;4.43;;
41139;SDS011;26881;48.784;9.192;2023-07-31T21:15:09;5.10;;;3.80;;
41139;SDS011;26881;48.784;9.192;2023-07-31T21:20:32;6.32;;;4.38;;
41139;SDS011;26881;48.784;9.192;2023-07-31T21:25:55;6.72;;;4.20;;
41139;SDS011;26881;48.784;9.192;2023-07-31T21:31:16;9.00;;;4.40;;
41139;SDS011;26881;48.784;9.192;2023-07-31T21:36:38;6.13;;;3.30;;
41139;SDS011;26881;48.784;9.192;2023-07-31T21:42:01;6.85;;;4.00;;
41139;SDS011;26881;48.784;9.192;2023-07-31T21:47:22;6.97;;;4.45;;
41139;SDS011;26881;48.784;9.192;2023-07-31T21:52:44;7.75;;;4.28;;
41139;SDS011;26881;48.784;9.192;2023-07-31T21:58:07;6.55;;;3.90;;
41139;SDS011;26881;48.784;9.192;2023-07-31T22:03:29;5.88;;;3.90;;
41139;SDS011;26881;48.784;9.192;2023-07-31T22:08:51;7.30;;;4.40;;
41139;SDS011;26881;48.784;9.192;2023-07-31T22:14:13;7.03;;;3.80;;
41139;SDS011;26881;48.784;9.192;2023-07-31T22:19:35;4.03;;;3.58;;
41139;SDS011;26881;48.784;9.192;2023-07-31T22:24:56;5.50;;;3.80;;
41139;SDS011;26881;48.784;9.192;2023-07-31T22:30:18;7.45;;;3.88;;
41139;SDS011;26881;48.784;9.192;2023-07-31T22:35:40;7.43;;;3.38;;
41139;SDS011;26881;48.784;9.192;2023-07-31T22:41:02;4.50;;;3.35;;
41139;SDS011;26881;48.784;9.192;2023-07-31T22:46:26;5.72;;;3.45;;
41139;SDS011;26881;48.784;9.192;2023-07-31T22:51:48;4.80;;;3.50;;
41139;SDS011;26881;48.784;9.192;2023-07-31T22:57:10;6.53;;;3.33;;
41139;SDS011;26881;48.784;9.192;2023-07-31T23:02:32;4.75;;;3.03;;
41139;SDS011;26881;48.784;9.192;2023-07-31T23:07:54;4.35;;;3.17;;
41139;SDS011;26881;48.784;9.192;2023-07-31T23:13:16;7.25;;;3.22;;
41139;SDS011;26881;48.784;9.192;2023-07-31T23:18:38;5.15;;;3.22;;
41139;SDS011;26881;48.784;9.192;2023-07-31T23:24:00;5.15;;;2.95;;
41139;SDS011;26881;48.784;9.192;2023-07-31T23:29:22;6.80;;;3.15;;
41139;SDS011;26881;48.784;9.192;2023-07-31T23:34:44;5.38;;;3.85;;
41139;SDS011;26881;48.784;9.192;2023-07-31T23:40:06;5.15;;;3.20;;
41139;SDS011;26881;48.784;9.192;2023-07-31T23:45:28;5.43;;;3.08;;
41139;SDS011;26881;48.784;9.192;2023-07-31T23:50:50;7.75;;;3.63;;
41139;SDS011;26881;48.784;9.192;2023-07-31T23:56:12;5.93;;;3.17;;
